Accueil
METAR-TAF:

METAR-TAF

Aéroports :

Kosrae, Micronésie

Aéroport international de Kosrae

latitude: 05-21N, longitude: 162-57E, altitude: 3 m

Observation

Le bulletin a été fait il y a 5 heures et 17 minutes, à 01:50 UTC
Vent 12 kt de nord-est
Température 31°C
Humidité 71%
Pression 1009 hPa
Visibilité: 16.1 km
Nuages épars à une hauteur de 2100 ft, Cumulus congestus.
Nuages fragmentés à une hauteur de 13000 ft
Nuages fragmentés à une hauteur de 30000 ft

METAR: PTSA 270150Z 04012KT 10SM SCT021TCU BKN130 BKN300 31/25 A2980 RMK TCU SE LAST

Heure: 18:07 (07:07 UTC)

Prévision

Le bulletin a été fait il y a 7 heures et 36 minutes, à 23:31 UTC
Prévision valable du 27 à 00 UTC au 27 à 24 UTC
Vent 10 kt de est
Visibilité: 10 km
Quelques nuages à une hauteur de 2000 ft
Nuages épars à une hauteur de 5000 ft
averses à proximité

TAF: PTSA 262331Z 2700/2724 08010KT P6SM VCSH FEW020 SCT050

Observations et prévisions météorologiques de plus de 4000 aéroports (messages METAR et TAF).

Les stations disponibles sont représentées par des disques jaunes et rouges sur la carte.

Passer la souris dessus pour voir le nom de la station.

Cliquer dessus pour voir les observations et prévisions météorologiques.

Pour changer de carte: cliquez sur les boutons verts avec une croix noire pour zoomer, sur le bouton vert avec un tiret pour effectuer un zoom arrière, ou sur les flèches vertes pour les cartes adjacentes.


METAR-TAF: